createdAt,value
2018-08-24T00:00:34.245Z,932.53
2018-08-24T00:01:34.332Z,932.54
2018-08-24T00:02:34.343Z,932.51
2018-08-24T00:03:34.357Z,932.51
2018-08-24T00:04:34.376Z,932.52
2018-08-24T00:05:34.407Z,932.53
2018-08-24T00:06:34.403Z,932.54
2018-08-24T00:07:34.288Z,932.56
2018-08-24T00:08:34.310Z,932.61
2018-08-24T00:09:34.445Z,932.62
2018-08-24T00:10:34.508Z,932.63
2018-08-24T00:11:34.349Z,932.63
2018-08-24T00:12:34.368Z,932.63
2018-08-24T00:13:34.380Z,932.61
2018-08-24T00:14:34.520Z,932.65
2018-08-24T00:15:34.688Z,932.67
2018-08-24T00:16:34.553Z,932.64
2018-08-24T00:17:34.433Z,932.57
2018-08-24T00:18:34.461Z,932.60
2018-08-24T00:19:34.513Z,932.57
2018-08-24T00:20:34.636Z,932.63
2018-08-24T00:21:34.505Z,932.61
2018-08-24T00:22:34.510Z,932.67
2018-08-24T00:23:34.658Z,932.65
2018-08-24T00:24:34.558Z,932.67
2018-08-24T00:25:34.679Z,932.70
2018-08-24T00:26:34.574Z,932.67
2018-08-24T00:27:34.720Z,932.71
2018-08-24T00:28:34.614Z,932.72
2018-08-24T00:29:34.753Z,932.67
2018-08-24T00:30:34.787Z,932.68
2018-08-24T00:31:34.661Z,932.70
2018-08-24T00:32:34.664Z,932.68
2018-08-24T00:33:34.679Z,932.71
2018-08-24T00:34:34.698Z,932.72
2018-08-24T00:35:34.983Z,932.70
2018-08-24T00:36:34.719Z,932.67
2018-08-24T00:37:34.733Z,932.66
2018-08-24T00:38:34.874Z,932.65
2018-08-24T00:39:34.768Z,932.65
2018-08-24T00:40:34.841Z,932.66
2018-08-24T00:41:34.810Z,932.67
2018-08-24T00:42:35.061Z,932.62
2018-08-24T00:43:34.828Z,932.61
2018-08-24T00:44:34.847Z,932.63
2018-08-24T00:45:34.984Z,932.64
2018-08-24T00:46:34.867Z,932.64
2018-08-24T00:47:34.954Z,932.63
2018-08-24T00:48:34.898Z,932.65
2018-08-24T00:49:35.027Z,932.66
2018-08-24T00:50:34.936Z,932.65
2018-08-24T00:51:34.938Z,932.69
2018-08-24T00:52:34.957Z,932.63
2018-08-24T00:53:34.980Z,932.67
2018-08-24T00:54:35.035Z,932.65
2018-08-24T00:55:35.133Z,932.62
2018-08-24T00:56:35.152Z,932.64
2018-08-24T00:57:35.110Z,932.65
2018-08-24T00:58:35.055Z,932.65
2018-08-24T00:59:35.335Z,932.66
2018-08-24T01:00:35.124Z,932.63
2018-08-24T01:01:35.105Z,932.63
2018-08-24T01:02:35.147Z,932.65
2018-08-24T01:03:35.122Z,932.63
2018-08-24T01:04:35.128Z,932.60
2018-08-24T01:05:35.316Z,932.61
2018-08-24T01:06:35.175Z,932.64
2018-08-24T01:07:35.257Z,932.61
2018-08-24T01:08:35.320Z,932.63
2018-08-24T01:09:35.334Z,932.65
2018-08-24T01:10:35.405Z,932.69
2018-08-24T01:11:35.249Z,932.63
2018-08-24T01:12:35.252Z,932.67
2018-08-24T01:13:35.271Z,932.62
2018-08-24T01:14:35.285Z,932.62
2018-08-24T01:15:35.428Z,932.63
2018-08-24T01:16:35.411Z,932.59
2018-08-24T01:17:35.334Z,932.57
2018-08-24T01:18:35.340Z,932.62
2018-08-24T01:19:35.368Z,932.57
2018-08-24T01:20:35.384Z,932.55
2018-08-24T01:21:35.492Z,932.56
2018-08-24T01:22:35.399Z,932.53
2018-08-24T01:23:35.413Z,932.50
2018-08-24T01:24:35.440Z,932.53
2018-08-24T01:25:35.505Z,932.49
2018-08-24T01:26:35.602Z,932.51
2018-08-24T01:27:35.476Z,932.49
2018-08-24T01:28:35.613Z,932.52
2018-08-24T01:29:35.502Z,932.52
2018-08-24T01:30:35.519Z,932.50
2018-08-24T01:31:35.762Z,932.53
2018-08-24T01:32:35.544Z,932.52
2018-08-24T01:33:35.553Z,932.48
2018-08-24T01:34:35.584Z,932.51
2018-08-24T01:35:35.713Z,932.54
2018-08-24T01:36:35.698Z,932.52
2018-08-24T01:37:35.742Z,932.54
2018-08-24T01:38:35.642Z,932.54
2018-08-24T01:39:35.666Z,932.52
2018-08-24T01:40:35.786Z,932.51
2018-08-24T01:41:35.728Z,932.49
2018-08-24T01:42:35.688Z,932.53
2018-08-24T01:43:35.839Z,932.55
2018-08-24T01:44:35.718Z,932.52
2018-08-24T01:45:35.735Z,932.51
2018-08-24T01:46:35.853Z,932.51
2018-08-24T01:47:35.773Z,932.47
2018-08-24T01:48:35.911Z,932.48
2018-08-24T01:49:35.787Z,932.50
2018-08-24T01:50:35.814Z,932.48
2018-08-24T01:51:35.928Z,932.48
2018-08-24T01:52:35.842Z,932.48
2018-08-24T01:53:35.981Z,932.46
2018-08-24T01:54:35.993Z,932.45
2018-08-24T01:55:35.892Z,932.44
2018-08-24T01:56:35.985Z,932.43
2018-08-24T01:57:35.917Z,932.46
2018-08-24T01:58:35.923Z,932.46
2018-08-24T01:59:35.937Z,932.45
2018-08-24T02:00:35.955Z,932.46
2018-08-24T02:01:36.143Z,932.46
2018-08-24T02:02:36.103Z,932.47
2018-08-24T02:03:35.997Z,932.47
2018-08-24T02:04:36.005Z,932.50
2018-08-24T02:05:36.029Z,932.45
2018-08-24T02:06:36.262Z,932.46
2018-08-24T02:07:36.179Z,932.49
2018-08-24T02:08:36.187Z,932.49
2018-08-24T02:09:36.080Z,932.46
2018-08-24T02:10:36.221Z,932.49
2018-08-24T02:11:36.281Z,932.41
2018-08-24T02:12:36.130Z,932.44
2018-08-24T02:13:36.260Z,932.46
2018-08-24T02:14:36.172Z,932.41
2018-08-24T02:15:36.262Z,932.43
2018-08-24T02:16:36.307Z,932.38
2018-08-24T02:17:36.191Z,932.35
2018-08-24T02:18:36.333Z,932.33
2018-08-24T02:19:36.346Z,932.37
2018-08-24T02:20:36.457Z,932.34
2018-08-24T02:21:36.379Z,932.34
2018-08-24T02:22:36.264Z,932.35
2018-08-24T02:23:36.286Z,932.35
2018-08-24T02:24:36.286Z,932.35
2018-08-24T02:25:36.475Z,932.31
2018-08-24T02:26:36.316Z,932.33
2018-08-24T02:27:36.331Z,932.31
2018-08-24T02:28:36.471Z,932.33
2018-08-24T02:29:36.486Z,932.31
2018-08-24T02:30:36.481Z,932.27
2018-08-24T02:31:36.393Z,932.29
2018-08-24T02:32:36.399Z,932.32
2018-08-24T02:33:36.536Z,932.27
2018-08-24T02:34:36.556Z,932.25
2018-08-24T02:35:36.671Z,932.26
2018-08-24T02:36:36.461Z,932.27
2018-08-24T02:37:36.470Z,932.25
2018-08-24T02:38:36.606Z,932.28
2018-08-24T02:39:36.620Z,932.23
2018-08-24T02:40:36.669Z,932.23
2018-08-24T02:41:36.530Z,932.20
2018-08-24T02:42:36.537Z,932.18
2018-08-24T02:43:36.677Z,932.17
2018-08-24T02:44:36.696Z,932.17
2018-08-24T02:45:36.757Z,932.18
2018-08-24T02:46:36.868Z,932.16
2018-08-24T02:47:36.599Z,932.13
2018-08-24T02:48:36.625Z,932.13
2018-08-24T02:49:36.626Z,932.14
2018-08-24T02:50:36.660Z,932.14
2018-08-24T02:51:36.884Z,932.14
2018-08-24T02:52:36.665Z,932.15
2018-08-24T02:53:36.713Z,932.16
2018-08-24T02:54:36.836Z,932.14
2018-08-24T02:55:36.713Z,932.15
2018-08-24T02:56:36.885Z,932.17
2018-08-24T02:57:36.748Z,932.12
2018-08-24T02:58:36.758Z,932.09
2018-08-24T02:59:36.780Z,932.07
2018-08-24T03:00:36.792Z,932.07
2018-08-24T03:01:36.902Z,932.06
2018-08-24T03:02:36.802Z,932.04
2018-08-24T03:03:36.820Z,932.06
2018-08-24T03:04:36.848Z,932.08
2018-08-24T03:05:37.088Z,932.09
2018-08-24T03:06:37.094Z,932.09
2018-08-24T03:07:36.886Z,932.06
2018-08-24T03:08:36.892Z,932.08
2018-08-24T03:09:37.032Z,932.09
2018-08-24T03:10:37.049Z,932.06
2018-08-24T03:11:37.037Z,932.08
2018-08-24T03:12:36.957Z,932.09
2018-08-24T03:13:37.087Z,932.05
2018-08-24T03:14:37.107Z,932.05
2018-08-24T03:15:37.117Z,932.05
2018-08-24T03:16:37.279Z,931.99
2018-08-24T03:17:37.022Z,931.99
2018-08-24T03:18:37.043Z,931.99
2018-08-24T03:19:37.174Z,931.98
2018-08-24T03:20:37.185Z,931.98
2018-08-24T03:21:37.196Z,931.98
2018-08-24T03:22:37.185Z,931.96
2018-08-24T03:23:37.106Z,931.97
2018-08-24T03:24:37.111Z,931.98
2018-08-24T03:25:37.249Z,931.96
2018-08-24T03:26:37.141Z,931.95
2018-08-24T03:27:37.434Z,931.98
2018-08-24T03:28:37.293Z,931.97
2018-08-24T03:29:37.184Z,931.94
2018-08-24T03:30:37.201Z,931.96
2018-08-24T03:31:37.332Z,931.95
2018-08-24T03:32:37.284Z,931.91
2018-08-24T03:33:37.359Z,931.90
2018-08-24T03:34:37.376Z,931.87
2018-08-24T03:35:37.303Z,931.88
2018-08-24T03:36:37.273Z,931.90
2018-08-24T03:37:37.428Z,931.84
2018-08-24T03:38:37.304Z,931.82
2018-08-24T03:39:37.327Z,931.80
2018-08-24T03:40:37.454Z,931.78
2018-08-24T03:41:37.339Z,931.78
2018-08-24T03:42:37.535Z,931.79
2018-08-24T03:43:37.462Z,931.77
2018-08-24T03:44:37.387Z,931.73
2018-08-24T03:45:37.524Z,931.73
2018-08-24T03:46:37.409Z,931.74
2018-08-24T03:47:37.545Z,931.72
2018-08-24T03:48:37.537Z,931.75
2018-08-24T03:49:37.448Z,931.79
2018-08-24T03:50:37.467Z,931.81
2018-08-24T03:51:37.495Z,931.80
2018-08-24T03:52:37.500Z,931.84
2018-08-24T03:53:37.609Z,931.84
2018-08-24T03:54:37.648Z,931.88
2018-08-24T03:55:37.661Z,931.87
2018-08-24T03:56:37.672Z,931.87
2018-08-24T03:57:37.561Z,931.93
2018-08-24T03:58:37.798Z,931.88
2018-08-24T03:59:37.588Z,931.85
2018-08-24T04:00:37.726Z,931.85
2018-08-24T04:01:37.610Z,931.85
2018-08-24T04:02:37.746Z,931.88
2018-08-24T04:03:37.908Z,931.89
2018-08-24T04:04:37.662Z,931.89
2018-08-24T04:05:37.668Z,931.86
2018-08-24T04:06:37.689Z,931.82
2018-08-24T04:07:37.682Z,931.81
2018-08-24T04:08:37.984Z,931.78
2018-08-24T04:09:37.847Z,931.75
2018-08-24T04:10:37.724Z,931.69
2018-08-24T04:11:37.875Z,931.67
2018-08-24T04:12:37.921Z,931.69
2018-08-24T04:13:38.095Z,931.62
2018-08-24T04:14:37.911Z,931.62
2018-08-24T04:15:37.807Z,931.58
2018-08-24T04:16:37.845Z,931.51
2018-08-24T04:17:37.828Z,931.54
2018-08-24T04:18:37.886Z,931.48
2018-08-24T04:19:37.996Z,931.50
2018-08-24T04:20:38.077Z,931.49
2018-08-24T04:21:37.882Z,931.50
2018-08-24T04:22:37.905Z,931.49
2018-08-24T04:23:38.028Z,931.51
2018-08-24T04:24:38.044Z,931.51
2018-08-24T04:25:38.078Z,931.50
2018-08-24T04:26:38.123Z,931.47
2018-08-24T04:27:38.087Z,931.49
2018-08-24T04:28:38.098Z,931.47
2018-08-24T04:29:38.007Z,931.45
2018-08-24T04:30:38.119Z,931.42
2018-08-24T04:31:38.073Z,931.42
2018-08-24T04:32:38.149Z,931.39
2018-08-24T04:33:38.159Z,931.36
2018-08-24T04:34:38.056Z,931.35
2018-08-24T04:35:38.064Z,931.35
2018-08-24T04:36:38.128Z,931.32
2018-08-24T04:37:38.090Z,931.33
2018-08-24T04:38:38.104Z,931.28
2018-08-24T04:39:38.313Z,931.29
2018-08-24T04:40:38.144Z,931.28
2018-08-24T04:41:38.181Z,931.22
2018-08-24T04:42:38.166Z,931.23
2018-08-24T04:43:38.295Z,931.24
2018-08-24T04:44:38.427Z,931.23
2018-08-24T04:45:38.277Z,931.22
2018-08-24T04:46:38.215Z,931.20
2018-08-24T04:47:38.220Z,931.17
2018-08-24T04:48:38.253Z,931.17
2018-08-24T04:49:38.528Z,931.19
2018-08-24T04:50:38.279Z,931.11
2018-08-24T04:51:38.279Z,931.12
2018-08-24T04:52:38.413Z,931.09
2018-08-24T04:53:38.432Z,931.10
2018-08-24T04:54:38.467Z,931.08
2018-08-24T04:55:38.457Z,931.08
2018-08-24T04:56:38.358Z,931.04
2018-08-24T04:57:38.392Z,931.06
2018-08-24T04:58:38.501Z,931.05
2018-08-24T04:59:38.660Z,931.08
2018-08-24T05:00:38.397Z,931.09
2018-08-24T05:01:38.407Z,931.17
2018-08-24T05:02:38.427Z,931.14
2018-08-24T05:03:38.430Z,931.20
2018-08-24T05:04:38.508Z,931.20
2018-08-24T05:05:38.668Z,931.21
2018-08-24T05:06:38.477Z,931.19
2018-08-24T05:07:38.500Z,931.21
2018-08-24T05:08:38.505Z,931.21
2018-08-24T05:09:38.743Z,931.20
2018-08-24T05:10:38.550Z,931.22
2018-08-24T05:11:38.547Z,931.23
2018-08-24T05:12:38.683Z,931.20
2018-08-24T05:13:38.568Z,931.22
2018-08-24T05:14:38.721Z,931.18
2018-08-24T05:15:38.597Z,931.18
2018-08-24T05:16:38.732Z,931.17
2018-08-24T05:17:38.746Z,931.14
2018-08-24T05:18:38.639Z,931.14
2018-08-24T05:19:38.802Z,931.10
2018-08-24T05:20:38.786Z,931.09
2018-08-24T05:21:38.675Z,931.07
2018-08-24T05:22:38.681Z,931.08
2018-08-24T05:23:38.695Z,931.07
2018-08-24T05:24:38.874Z,931.07
2018-08-24T05:25:38.721Z,931.04
2018-08-24T05:26:38.741Z,931.03
2018-08-24T05:27:38.771Z,931.03
2018-08-24T05:28:38.765Z,931.08
2018-08-24T05:29:38.882Z,931.07
2018-08-24T05:30:38.920Z,931.08
2018-08-24T05:31:38.803Z,931.09
2018-08-24T05:32:38.829Z,931.11
2018-08-24T05:33:38.956Z,931.16
2018-08-24T05:34:39.023Z,931.16
2018-08-24T05:35:38.903Z,931.14
2018-08-24T05:36:38.875Z,931.18
2018-08-24T05:37:38.884Z,931.19
2018-08-24T05:38:39.039Z,931.21
2018-08-24T05:39:38.910Z,931.26
2018-08-24T05:40:38.926Z,931.30
2018-08-24T05:41:38.945Z,931.25
2018-08-24T05:42:39.082Z,931.26
2018-08-24T05:43:39.125Z,931.24
2018-08-24T05:44:39.024Z,931.30
2018-08-24T05:45:38.995Z,931.26
2018-08-24T05:46:39.001Z,931.22
2018-08-24T05:47:39.053Z,931.24
2018-08-24T05:48:39.083Z,931.19
2018-08-24T05:49:39.136Z,931.27
2018-08-24T05:50:39.079Z,931.24
2018-08-24T05:51:39.073Z,931.21
2018-08-24T05:52:39.208Z,931.18
2018-08-24T05:53:39.092Z,931.15
2018-08-24T05:54:39.155Z,931.15
2018-08-24T05:55:39.387Z,931.16
2018-08-24T05:56:39.133Z,931.12
2018-08-24T05:57:39.148Z,931.17
2018-08-24T05:58:39.291Z,931.17
2018-08-24T05:59:39.295Z,931.15
2018-08-24T06:00:39.352Z,931.13
2018-08-24T06:01:39.245Z,931.11
2018-08-24T06:02:39.341Z,931.10
2018-08-24T06:03:39.354Z,931.04
2018-08-24T06:04:39.244Z,931.03
2018-08-24T06:05:39.541Z,931.02
2018-08-24T06:06:39.262Z,930.99
2018-08-24T06:07:39.278Z,930.94
2018-08-24T06:08:39.416Z,930.96
2018-08-24T06:09:39.429Z,931.00
2018-08-24T06:10:39.492Z,930.96
2018-08-24T06:11:39.456Z,931.02
2018-08-24T06:12:39.468Z,931.01
2018-08-24T06:13:39.478Z,930.99
2018-08-24T06:14:39.499Z,931.02
2018-08-24T06:15:39.479Z,931.01
2018-08-24T06:16:39.434Z,930.99
2018-08-24T06:17:39.423Z,930.97
2018-08-24T06:18:39.541Z,931.00
2018-08-24T06:19:39.438Z,931.01
2018-08-24T06:20:39.724Z,930.98
2018-08-24T06:21:39.456Z,931.00
2018-08-24T06:22:39.525Z,931.00
2018-08-24T06:23:39.489Z,931.04
2018-08-24T06:24:39.621Z,931.01
2018-08-24T06:25:39.624Z,931.03
2018-08-24T06:26:39.647Z,930.99
2018-08-24T06:27:39.668Z,930.98
2018-08-24T06:28:39.673Z,930.98
2018-08-24T06:29:39.563Z,930.98
2018-08-24T06:30:39.613Z,931.00
2018-08-24T06:31:39.583Z,931.04
2018-08-24T06:32:39.702Z,930.99
2018-08-24T06:33:39.610Z,930.96
2018-08-24T06:34:39.643Z,930.94
2018-08-24T06:35:39.652Z,930.87
2018-08-24T06:36:39.665Z,930.87
2018-08-24T06:37:39.888Z,930.85
2018-08-24T06:38:39.717Z,930.80
2018-08-24T06:39:39.816Z,930.85
2018-08-24T06:40:39.832Z,930.83
2018-08-24T06:41:39.891Z,930.80
2018-08-24T06:42:40.009Z,930.78
2018-08-24T06:43:39.761Z,930.82
2018-08-24T06:44:39.756Z,930.78
2018-08-24T06:45:39.766Z,930.78
2018-08-24T06:46:39.907Z,930.79
2018-08-24T06:47:39.933Z,930.85
2018-08-24T06:48:39.936Z,930.82
2018-08-24T06:49:39.827Z,930.86
2018-08-24T06:50:39.958Z,930.84
2018-08-24T06:51:39.998Z,930.89
2018-08-24T06:52:39.987Z,930.82
2018-08-24T06:53:40.081Z,930.81
2018-08-24T06:54:40.008Z,930.84
2018-08-24T06:55:40.027Z,930.82
2018-08-24T06:56:40.193Z,930.86
2018-08-24T06:57:39.929Z,930.84
2018-08-24T06:58:40.062Z,930.85
2018-08-24T06:59:39.980Z,930.83
2018-08-24T07:00:40.091Z,930.85
2018-08-24T07:01:40.303Z,930.81
2018-08-24T07:02:40.115Z,930.86
2018-08-24T07:03:40.006Z,930.80
2018-08-24T07:04:40.012Z,930.79
2018-08-24T07:05:40.073Z,930.79
2018-08-24T07:06:40.093Z,930.84
2018-08-24T07:07:40.182Z,930.85
2018-08-24T07:08:40.158Z,930.88
2018-08-24T07:09:40.085Z,930.86
2018-08-24T07:10:40.215Z,930.89
2018-08-24T07:11:40.103Z,930.88
2018-08-24T07:12:40.122Z,930.90
2018-08-24T07:13:40.332Z,930.92
2018-08-24T07:14:40.149Z,930.91
2018-08-24T07:15:40.165Z,930.88
2018-08-24T07:16:40.298Z,930.88
2018-08-24T07:17:40.190Z,930.90
2018-08-24T07:18:40.397Z,930.89
2018-08-24T07:19:40.220Z,930.89
2018-08-24T07:20:40.223Z,930.93
2018-08-24T07:21:40.357Z,930.93
2018-08-24T07:22:40.248Z,930.96
2018-08-24T07:23:40.482Z,930.95
2018-08-24T07:24:40.315Z,930.96
2018-08-24T07:25:40.318Z,930.96
2018-08-24T07:26:40.296Z,930.92
2018-08-24T07:27:40.432Z,930.91
2018-08-24T07:28:40.503Z,930.90
2018-08-24T07:29:40.463Z,930.87
2018-08-24T07:30:40.471Z,930.90
2018-08-24T07:31:40.361Z,930.83
2018-08-24T07:32:40.376Z,930.83
2018-08-24T07:33:40.660Z,930.83
2018-08-24T07:34:40.394Z,930.84
2018-08-24T07:35:40.412Z,930.83
2018-08-24T07:36:40.553Z,930.85
2018-08-24T07:37:40.449Z,930.85
2018-08-24T07:38:40.561Z,930.89
2018-08-24T07:39:40.468Z,930.86
2018-08-24T07:40:40.509Z,930.85
2018-08-24T07:41:40.547Z,930.85
2018-08-24T07:42:40.623Z,930.84
2018-08-24T07:43:40.792Z,930.86
2018-08-24T07:44:40.540Z,930.84
2018-08-24T07:45:40.546Z,930.84
2018-08-24T07:46:40.682Z,930.79
2018-08-24T07:47:40.572Z,930.78
2018-08-24T07:48:40.682Z,930.79
2018-08-24T07:49:40.618Z,930.78
2018-08-24T07:50:40.793Z,930.73
2018-08-24T07:51:40.626Z,930.74
2018-08-24T07:52:40.640Z,930.68
2018-08-24T07:53:40.746Z,930.70
2018-08-24T07:54:40.646Z,930.64
2018-08-24T07:55:40.663Z,930.62
2018-08-24T07:56:40.676Z,930.63
2018-08-24T07:57:40.703Z,930.66
2018-08-24T07:58:40.988Z,930.69
2018-08-24T07:59:40.722Z,930.70
2018-08-24T08:00:40.740Z,930.68
2018-08-24T08:01:40.754Z,930.69
2018-08-24T08:02:40.885Z,930.75
2018-08-24T08:03:40.925Z,930.79
2018-08-24T08:04:40.790Z,930.80
2018-08-24T08:05:40.796Z,930.83
2018-08-24T08:06:40.845Z,930.80
2018-08-24T08:07:40.826Z,930.83
2018-08-24T08:08:40.877Z,930.84
2018-08-24T08:09:40.980Z,930.85
2018-08-24T08:10:41.092Z,930.87
2018-08-24T08:11:40.879Z,930.88
2018-08-24T08:12:41.117Z,930.87
2018-08-24T08:13:40.899Z,930.87
2018-08-24T08:14:40.909Z,930.91
2018-08-24T08:15:41.149Z,930.88
2018-08-24T08:16:40.945Z,930.87
2018-08-24T08:17:41.081Z,930.85
2018-08-24T08:18:41.084Z,930.87
2018-08-24T08:19:40.978Z,930.88
2018-08-24T08:20:41.135Z,930.91
2018-08-24T08:21:41.023Z,930.92
2018-08-24T08:22:41.023Z,930.93
2018-08-24T08:23:41.029Z,930.94
2018-08-24T08:24:41.044Z,930.99
2018-08-24T08:25:41.254Z,930.99
2018-08-24T08:26:41.193Z,930.98
2018-08-24T08:27:41.083Z,931.05
2018-08-24T08:28:41.106Z,931.05
2018-08-24T08:29:41.107Z,931.04
2018-08-24T08:30:41.170Z,931.03
2018-08-24T08:31:41.254Z,931.03
2018-08-24T08:32:41.269Z,931.06
2018-08-24T08:33:41.160Z,931.04
2018-08-24T08:34:41.296Z,931.05
2018-08-24T08:35:41.359Z,931.03
2018-08-24T08:36:41.193Z,931.04
2018-08-24T08:37:41.207Z,931.02
2018-08-24T08:38:41.371Z,931.02
2018-08-24T08:39:41.232Z,931.07
2018-08-24T08:40:41.376Z,931.05
2018-08-24T08:41:41.258Z,931.07
2018-08-24T08:42:41.400Z,931.07
2018-08-24T08:43:41.512Z,931.06
2018-08-24T08:44:41.424Z,931.05
2018-08-24T08:45:41.301Z,931.08
2018-08-24T08:46:41.451Z,931.09
2018-08-24T08:47:41.335Z,931.11
2018-08-24T08:48:41.525Z,931.11
2018-08-24T08:49:41.361Z,931.14
2018-08-24T08:50:41.547Z,931.09
2018-08-24T08:51:41.385Z,931.16
2018-08-24T08:52:41.489Z,931.14
2018-08-24T08:53:41.536Z,931.19
2018-08-24T08:54:41.548Z,931.23
2018-08-24T08:55:41.441Z,931.24
2018-08-24T08:56:41.453Z,931.28
2018-08-24T08:57:41.560Z,931.27
2018-08-24T08:58:41.491Z,931.27
2018-08-24T08:59:41.540Z,931.31
2018-08-24T09:00:41.626Z,931.30
2018-08-24T09:01:41.527Z,931.29
2018-08-24T09:02:41.752Z,931.30
2018-08-24T09:03:41.532Z,931.26
2018-08-24T09:04:41.679Z,931.22
2018-08-24T09:05:41.563Z,931.24
2018-08-24T09:06:41.579Z,931.31
2018-08-24T09:07:41.686Z,931.30
2018-08-24T09:08:41.726Z,931.28
2018-08-24T09:09:41.620Z,931.31
2018-08-24T09:10:41.752Z,931.33
2018-08-24T09:11:41.645Z,931.28
2018-08-24T09:12:41.872Z,931.33
2018-08-24T09:13:41.678Z,931.36
2018-08-24T09:14:41.706Z,931.35
2018-08-24T09:15:41.814Z,931.37
2018-08-24T09:16:41.711Z,931.34
2018-08-24T09:17:41.938Z,931.36
2018-08-24T09:18:41.732Z,931.36
2018-08-24T09:19:41.868Z,931.33
2018-08-24T09:20:41.760Z,931.30
2018-08-24T09:21:41.892Z,931.32
2018-08-24T09:22:42.005Z,931.32
2018-08-24T09:23:41.963Z,931.31
2018-08-24T09:24:41.924Z,931.33
2018-08-24T09:25:41.924Z,931.37
2018-08-24T09:26:41.829Z,931.39
2018-08-24T09:27:42.065Z,931.43
2018-08-24T09:28:41.851Z,931.44
2018-08-24T09:29:41.993Z,931.47
2018-08-24T09:30:41.887Z,931.51
2018-08-24T09:31:41.896Z,931.53
2018-08-24T09:32:42.152Z,931.50
2018-08-24T09:33:41.954Z,931.50
2018-08-24T09:34:41.933Z,931.49
2018-08-24T09:35:41.943Z,931.47
2018-08-24T09:36:42.084Z,931.52
2018-08-24T09:37:42.192Z,931.50
2018-08-24T09:38:41.980Z,931.48
2018-08-24T09:39:42.120Z,931.52
2018-08-24T09:40:42.004Z,931.47
2018-08-24T09:41:42.141Z,931.44
2018-08-24T09:43:42.096Z,931.44
2018-08-24T09:44:42.182Z,931.42
2018-08-24T09:45:42.069Z,931.43
2018-08-24T09:46:42.085Z,931.41
2018-08-24T09:47:42.317Z,931.45
2018-08-24T09:48:42.108Z,931.46
2018-08-24T09:49:42.147Z,931.51
2018-08-24T09:50:42.258Z,931.54
2018-08-24T09:51:42.147Z,931.49
2018-08-24T09:52:42.254Z,931.56
2018-08-24T09:53:42.188Z,931.50
2018-08-24T09:54:42.316Z,931.54
2018-08-24T09:55:42.197Z,931.55
2018-08-24T09:56:42.276Z,931.54
2018-08-24T09:57:42.288Z,931.53
2018-08-24T09:58:42.370Z,931.55
2018-08-24T09:59:42.311Z,931.54
2018-08-24T10:00:42.256Z,931.54
2018-08-24T10:01:42.304Z,931.50
2018-08-24T10:02:42.364Z,931.57
2018-08-24T10:03:42.317Z,931.54
2018-08-24T10:04:42.431Z,931.55
2018-08-24T10:05:42.334Z,931.55
2018-08-24T10:06:42.373Z,931.57
2018-08-24T10:07:42.374Z,931.59
2018-08-24T10:08:42.504Z,931.59
2018-08-24T10:09:42.486Z,931.59
2018-08-24T10:10:42.406Z,931.57
2018-08-24T10:11:42.425Z,931.59
2018-08-24T10:12:42.567Z,931.59
2018-08-24T10:13:42.581Z,931.56
2018-08-24T10:14:42.767Z,931.59
2018-08-24T10:15:42.484Z,931.58
2018-08-24T10:16:42.513Z,931.58
2018-08-24T10:17:42.514Z,931.59
2018-08-24T10:18:42.540Z,931.58
2018-08-24T10:19:42.867Z,931.61
2018-08-24T10:20:42.687Z,931.59
2018-08-24T10:21:42.615Z,931.59
2018-08-24T10:22:42.590Z,931.58
2018-08-24T10:23:42.625Z,931.52
2018-08-24T10:24:43.102Z,931.54
2018-08-24T10:25:42.681Z,931.54
2018-08-24T10:26:42.787Z,931.53
2018-08-24T10:27:42.799Z,931.49
2018-08-24T10:28:42.690Z,931.47
2018-08-24T10:29:43.044Z,931.46
2018-08-24T10:30:42.726Z,931.49
2018-08-24T10:31:42.871Z,931.50
2018-08-24T10:32:42.770Z,931.52
2018-08-24T10:33:42.980Z,931.49
2018-08-24T10:34:42.914Z,931.51
2018-08-24T10:35:42.815Z,931.46
2018-08-24T10:36:42.842Z,931.43
2018-08-24T10:37:42.969Z,931.45
2018-08-24T10:38:43.057Z,931.44
2018-08-24T10:39:43.008Z,931.45
2018-08-24T10:40:42.927Z,931.47
2018-08-24T10:41:42.918Z,931.46
2018-08-24T10:42:43.054Z,931.48
2018-08-24T10:43:42.947Z,931.45
2018-08-24T10:44:42.980Z,931.50
2018-08-24T10:45:42.991Z,931.51
2018-08-24T10:46:43.021Z,931.51
2018-08-24T10:47:43.247Z,931.55
2018-08-24T10:48:43.049Z,931.51
2018-08-24T10:49:43.208Z,931.56
2018-08-24T10:50:43.208Z,931.57
2018-08-24T10:51:43.231Z,931.49
2018-08-24T10:52:43.339Z,931.53
2018-08-24T10:53:43.141Z,931.53
2018-08-24T10:54:43.210Z,931.51
2018-08-24T10:55:43.234Z,931.48
2018-08-24T10:56:43.323Z,931.49
2018-08-24T10:57:43.311Z,931.49
2018-08-24T10:58:43.235Z,931.50
2018-08-24T10:59:43.256Z,931.47
2018-08-24T11:00:43.392Z,931.48
2018-08-24T11:01:43.287Z,931.52
2018-08-24T11:02:43.421Z,931.46
2018-08-24T11:03:43.468Z,931.47
2018-08-24T11:04:43.356Z,931.47
2018-08-24T11:05:43.371Z,931.47
2018-08-24T11:06:43.385Z,931.42
2018-08-24T11:07:43.722Z,931.42
2018-08-24T11:08:43.446Z,931.49
2018-08-24T11:09:43.575Z,931.52
2018-08-24T11:10:43.464Z,931.50
2018-08-24T11:11:43.508Z,931.49
2018-08-24T11:12:43.609Z,931.48
2018-08-24T11:13:43.526Z,931.47
2018-08-24T11:14:43.557Z,931.46
2018-08-24T11:15:43.560Z,931.47
2018-08-24T11:16:43.647Z,931.46
2018-08-24T11:17:43.674Z,931.44
2018-08-24T11:18:43.757Z,931.40
2018-08-24T11:19:43.772Z,931.44
2018-08-24T11:20:43.792Z,931.42
2018-08-24T11:21:43.686Z,931.40
2018-08-24T11:22:43.933Z,931.45
2018-08-24T11:23:43.743Z,931.38
2018-08-24T11:24:43.877Z,931.41
2018-08-24T11:25:43.772Z,931.36
2018-08-24T11:26:43.922Z,931.42
2018-08-24T11:27:44.137Z,931.38
2018-08-24T11:28:43.923Z,931.37
2018-08-24T11:29:43.867Z,931.32
2018-08-24T11:30:44.000Z,931.35
2018-08-24T11:31:44.023Z,931.26
2018-08-24T11:32:44.190Z,931.29
2018-08-24T11:33:43.937Z,931.29
2018-08-24T11:34:43.945Z,931.28
2018-08-24T11:35:44.031Z,931.29
2018-08-24T11:36:44.125Z,931.26
2018-08-24T11:37:44.177Z,931.29
2018-08-24T11:38:44.166Z,931.29
2018-08-24T11:39:44.082Z,931.20
2018-08-24T11:40:44.123Z,931.19
2018-08-24T11:41:44.186Z,931.19
2018-08-24T11:42:44.228Z,931.18
2018-08-24T11:43:44.138Z,931.16
2018-08-24T11:44:44.286Z,931.19
2018-08-24T11:45:44.306Z,931.17
2018-08-24T11:46:44.201Z,931.17
2018-08-24T11:47:44.517Z,931.20
2018-08-24T11:48:44.235Z,931.24
2018-08-24T11:49:44.265Z,931.24
2018-08-24T11:50:44.406Z,931.24
2018-08-24T11:51:44.312Z,931.17
2018-08-24T11:52:44.423Z,931.20
2018-08-24T11:53:44.345Z,931.23
2018-08-24T11:54:44.371Z,931.28
2018-08-24T11:55:44.390Z,931.30
2018-08-24T11:56:44.456Z,931.21
2018-08-24T11:57:44.525Z,931.28
2018-08-24T11:58:44.478Z,931.33
2018-08-24T11:59:44.483Z,931.30
2018-08-24T12:00:44.482Z,931.31
2018-08-24T12:01:44.505Z,931.33
2018-08-24T12:02:44.578Z,931.37
2018-08-24T12:03:44.560Z,931.37
2018-08-24T12:04:44.688Z,931.40
2018-08-24T12:05:44.572Z,931.39
2018-08-24T12:06:44.723Z,931.34
2018-08-24T12:07:44.751Z,931.34
2018-08-24T12:08:44.646Z,931.37
2018-08-24T12:09:44.785Z,931.37
2018-08-24T12:10:44.691Z,931.40
2018-08-24T12:11:44.702Z,931.41
2018-08-24T12:12:44.862Z,931.40
2018-08-24T12:13:44.732Z,931.43
2018-08-24T12:14:44.756Z,931.40
2018-08-24T12:15:44.770Z,931.45
2018-08-24T12:16:44.835Z,931.47
2018-08-24T12:17:44.856Z,931.50
2018-08-24T12:18:44.900Z,931.48
2018-08-24T12:19:44.971Z,931.48
2018-08-24T12:20:45.041Z,931.45
2018-08-24T12:21:44.974Z,931.48
2018-08-24T12:22:45.015Z,931.45
2018-08-24T12:23:44.930Z,931.48
2018-08-24T12:24:44.945Z,931.48
2018-08-24T12:25:44.971Z,931.47
2018-08-24T12:26:44.983Z,931.44
2018-08-24T12:27:45.234Z,931.42
2018-08-24T12:28:45.147Z,931.43
2018-08-24T12:29:45.032Z,931.38